createdAt,value
2018-10-16T00:01:08.264Z,15.50
2018-10-16T00:03:37.157Z,15.50
2018-10-16T00:06:07.238Z,15.40
2018-10-16T00:08:36.085Z,15.40
2018-10-16T00:11:04.931Z,15.50
2018-10-16T00:13:33.583Z,15.50
2018-10-16T00:16:02.299Z,15.50
2018-10-16T00:18:30.973Z,15.50
2018-10-16T00:20:59.755Z,15.50
2018-10-16T00:23:28.438Z,15.40
2018-10-16T00:25:57.174Z,15.40
2018-10-16T00:28:25.968Z,15.30
2018-10-16T00:30:54.586Z,15.30
2018-10-16T00:33:23.336Z,15.40
2018-10-16T00:35:52.349Z,15.40
2018-10-16T00:38:21.084Z,15.50
2018-10-16T00:40:49.726Z,15.50
2018-10-16T00:43:18.360Z,15.50
2018-10-16T00:45:47.073Z,15.50
2018-10-16T00:48:15.812Z,15.50
2018-10-16T00:50:44.461Z,15.50
2018-10-16T00:53:13.131Z,15.50
2018-10-16T00:55:41.837Z,15.60
2018-10-16T00:58:10.568Z,15.60
2018-10-16T01:00:39.132Z,15.70
2018-10-16T01:03:07.745Z,15.70
2018-10-16T01:05:36.415Z,15.80
2018-10-16T01:08:05.389Z,15.90
2018-10-16T01:10:34.186Z,15.90
2018-10-16T01:13:02.906Z,15.90
2018-10-16T01:15:31.591Z,15.90
2018-10-16T01:18:00.944Z,15.90
2018-10-16T01:20:30.604Z,15.90
2018-10-16T01:22:59.233Z,15.90
2018-10-16T01:25:27.819Z,15.80
2018-10-16T01:27:56.485Z,15.80
2018-10-16T01:30:25.090Z,15.80
2018-10-16T01:32:53.647Z,15.80
2018-10-16T01:35:22.274Z,15.70
2018-10-16T01:37:51.031Z,15.80
2018-10-16T01:40:19.719Z,15.70
2018-10-16T01:42:48.432Z,15.80
2018-10-16T01:45:17.018Z,15.80
2018-10-16T01:47:45.662Z,15.90
2018-10-16T01:50:14.389Z,15.90
2018-10-16T01:52:43.063Z,15.90
2018-10-16T01:55:11.771Z,15.90
2018-10-16T01:57:40.396Z,15.90
2018-10-16T02:00:10.389Z,16.00
2018-10-16T02:02:39.413Z,16.00
2018-10-16T02:05:08.253Z,16.10
2018-10-16T02:07:37.595Z,16.10
2018-10-16T02:10:06.694Z,16.20
2018-10-16T02:12:35.479Z,16.30
2018-10-16T02:15:04.302Z,16.40
2018-10-16T02:17:32.994Z,16.50
2018-10-16T02:20:01.966Z,16.40
2018-10-16T02:22:31.018Z,16.40
2018-10-16T02:24:59.937Z,16.40
2018-10-16T02:27:28.568Z,16.40
2018-10-16T02:29:57.239Z,16.20
2018-10-16T02:32:25.924Z,16.10
2018-10-16T02:34:54.525Z,16.00
2018-10-16T02:37:23.188Z,16.00
2018-10-16T02:39:51.814Z,15.90
2018-10-16T02:42:20.467Z,15.90
2018-10-16T02:44:49.145Z,15.90
2018-10-16T02:47:17.749Z,15.90
2018-10-16T02:49:46.391Z,15.90
2018-10-16T02:52:15.075Z,15.90
2018-10-16T02:54:43.822Z,15.80
2018-10-16T02:57:12.470Z,15.70
2018-10-16T02:59:41.177Z,15.70
2018-10-16T03:02:09.803Z,15.70
2018-10-16T03:04:38.436Z,15.70
2018-10-16T03:07:07.311Z,15.70
2018-10-16T03:09:36.005Z,15.70
2018-10-16T03:12:05.069Z,15.70
2018-10-16T03:14:33.781Z,15.70
2018-10-16T03:17:02.364Z,15.50
2018-10-16T03:19:31.045Z,15.50
2018-10-16T03:21:59.632Z,15.50
2018-10-16T03:24:28.237Z,15.40
2018-10-16T03:26:56.930Z,15.30
2018-10-16T03:29:25.542Z,15.10
2018-10-16T03:31:54.210Z,15.10
2018-10-16T03:34:22.861Z,15.10
2018-10-16T03:36:51.554Z,15.10
2018-10-16T03:39:20.235Z,15.10
2018-10-16T03:41:48.986Z,15.10
2018-10-16T03:44:17.673Z,15.00
2018-10-16T03:46:46.429Z,15.00
2018-10-16T03:49:15.054Z,14.90
2018-10-16T03:51:43.670Z,14.90
2018-10-16T03:54:12.334Z,14.90
2018-10-16T03:56:40.976Z,15.00
2018-10-16T03:59:09.661Z,15.00
2018-10-16T04:01:38.330Z,15.00
2018-10-16T04:04:07.041Z,15.00
2018-10-16T04:06:36.051Z,15.00
2018-10-16T04:09:06.798Z,15.00
2018-10-16T04:11:35.591Z,15.00
2018-10-16T04:14:04.301Z,15.00
2018-10-16T04:16:32.915Z,15.00
2018-10-16T04:19:01.671Z,15.10
2018-10-16T04:21:35.990Z,15.10
2018-10-16T04:24:04.789Z,15.00
2018-10-16T04:26:33.461Z,15.00
2018-10-16T04:29:02.127Z,14.90
2018-10-16T04:31:30.795Z,14.90
2018-10-16T04:33:59.575Z,14.80
2018-10-16T04:36:28.416Z,14.80
2018-10-16T04:38:57.152Z,14.90
2018-10-16T04:41:25.820Z,14.90
2018-10-16T04:43:55.496Z,14.90
2018-10-16T04:46:24.636Z,14.90
2018-10-16T04:48:53.529Z,14.90
2018-10-16T04:51:22.854Z,15.00
2018-10-16T04:53:52.069Z,15.00
2018-10-16T04:56:21.046Z,14.90
2018-10-16T04:58:49.706Z,14.90
2018-10-16T05:01:18.631Z,14.80
2018-10-16T05:03:47.427Z,14.80
2018-10-16T05:06:16.170Z,14.80
2018-10-16T05:08:45.064Z,14.70
2018-10-16T05:11:13.851Z,14.80
2018-10-16T05:13:42.804Z,14.70
2018-10-16T05:16:11.538Z,14.70
2018-10-16T05:18:40.234Z,14.60
2018-10-16T05:21:09.014Z,14.60
2018-10-16T05:23:37.832Z,14.60
2018-10-16T05:26:06.843Z,14.60
2018-10-16T05:28:35.658Z,14.50
2018-10-16T05:31:04.435Z,14.60
2018-10-16T05:33:33.083Z,14.40
2018-10-16T05:36:01.885Z,14.50
2018-10-16T05:38:30.613Z,14.50
2018-10-16T05:40:59.294Z,14.50
2018-10-16T05:43:27.936Z,14.50
2018-10-16T05:45:56.691Z,14.60
2018-10-16T05:48:25.369Z,14.60
2018-10-16T05:50:54.144Z,14.60
2018-10-16T05:53:22.886Z,14.60
2018-10-16T05:55:59.488Z,14.70
2018-10-16T05:58:28.957Z,14.70
2018-10-16T06:00:57.638Z,14.70
2018-10-16T06:03:26.281Z,14.70
2018-10-16T06:05:55.042Z,14.70
2018-10-16T06:08:23.781Z,14.70
2018-10-16T06:10:52.582Z,14.60
2018-10-16T06:13:21.249Z,14.60
2018-10-16T06:15:49.969Z,14.60
2018-10-16T06:18:18.717Z,14.70
2018-10-16T06:20:47.354Z,14.70
2018-10-16T06:23:16.044Z,14.60
2018-10-16T06:25:44.659Z,14.60
2018-10-16T06:28:18.333Z,14.70
2018-10-16T06:30:47.181Z,14.60
2018-10-16T06:33:17.662Z,14.60
2018-10-16T06:35:46.323Z,14.60
2018-10-16T06:38:15.212Z,14.60
2018-10-16T06:40:44.113Z,14.60
2018-10-16T06:43:12.945Z,14.50
2018-10-16T06:45:41.709Z,14.50
2018-10-16T06:48:10.655Z,14.50
2018-10-16T06:50:39.277Z,14.50
2018-10-16T06:53:08.194Z,14.50
2018-10-16T06:55:36.872Z,14.60
2018-10-16T06:58:06.190Z,14.60
2018-10-16T07:00:34.993Z,14.60
2018-10-16T07:03:03.848Z,14.60
2018-10-16T07:05:32.582Z,14.70
2018-10-16T07:08:01.321Z,14.70
2018-10-16T07:10:30.065Z,14.70
2018-10-16T07:12:59.118Z,14.70
2018-10-16T07:15:27.825Z,14.70
2018-10-16T07:17:56.866Z,14.60
2018-10-16T07:20:25.642Z,14.60
2018-10-16T07:22:57.394Z,14.70
2018-10-16T07:25:26.233Z,14.60
2018-10-16T07:27:55.026Z,14.70
2018-10-16T07:30:23.763Z,14.70
2018-10-16T07:32:52.863Z,14.60
2018-10-16T07:35:21.609Z,14.60
2018-10-16T07:37:50.668Z,14.60
2018-10-16T07:40:19.561Z,14.50
2018-10-16T07:42:48.315Z,14.50
2018-10-16T07:45:17.316Z,14.60
2018-10-16T07:47:46.029Z,14.70
2018-10-16T07:50:14.886Z,14.70
2018-10-16T07:52:44.328Z,14.80
2018-10-16T07:55:14.340Z,14.80
2018-10-16T07:57:43.056Z,14.80
2018-10-16T08:00:12.857Z,15.00
2018-10-16T08:02:42.669Z,15.10
2018-10-16T08:05:12.065Z,15.20
2018-10-16T08:07:41.486Z,15.30
2018-10-16T08:10:11.976Z,15.40
2018-10-16T08:12:40.820Z,15.50
2018-10-16T08:15:10.054Z,15.60
2018-10-16T08:17:39.849Z,15.70
2018-10-16T08:20:09.172Z,15.80
2018-10-16T08:22:38.084Z,15.90
2018-10-16T08:25:07.211Z,16.00
2018-10-16T08:27:36.276Z,16.00
2018-10-16T08:30:06.865Z,16.20
2018-10-16T08:32:35.571Z,16.30
2018-10-16T08:35:04.804Z,16.40
2018-10-16T08:39:49.574Z,16.50
2018-10-16T08:42:27.464Z,16.60
2018-10-16T08:45:21.107Z,17.00
2018-10-16T08:48:00.921Z,17.10
2018-10-16T08:50:42.728Z,17.30
2018-10-16T08:53:11.432Z,17.40
2018-10-16T08:55:40.278Z,17.60
2018-10-16T08:58:09.100Z,17.80
2018-10-16T09:00:37.932Z,17.90
2018-10-16T09:03:06.732Z,18.10
2018-10-16T09:05:35.631Z,18.20
2018-10-16T09:08:04.495Z,18.30
2018-10-16T09:10:33.376Z,18.40
2018-10-16T09:13:02.675Z,18.60
2018-10-16T09:15:31.586Z,18.80
2018-10-16T09:18:00.311Z,19.00
2018-10-16T09:20:29.090Z,19.10
2018-10-16T09:22:57.822Z,19.20
2018-10-16T09:25:26.713Z,19.40
2018-10-16T09:27:55.531Z,19.40
2018-10-16T09:30:24.934Z,19.60
2018-10-16T09:32:54.691Z,19.70
2018-10-16T09:35:23.583Z,19.80
2018-10-16T09:37:52.332Z,19.90
2018-10-16T09:40:21.351Z,20.10
2018-10-16T09:42:50.143Z,20.20
2018-10-16T09:45:18.911Z,20.30
2018-10-16T09:47:47.788Z,20.20
2018-10-16T09:50:16.699Z,20.20
2018-10-16T09:52:45.492Z,20.40
2018-10-16T09:55:14.477Z,20.50
2018-10-16T09:57:43.253Z,20.60
2018-10-16T10:00:18.033Z,20.70
2018-10-16T10:02:47.044Z,20.80
2018-10-16T10:05:16.191Z,20.90
2018-10-16T10:07:46.691Z,21.00
2018-10-16T10:10:15.722Z,21.10
2018-10-16T10:12:44.572Z,21.10
2018-10-16T10:15:13.610Z,21.20
2018-10-16T10:17:42.382Z,21.20
2018-10-16T10:20:11.020Z,21.20
2018-10-16T10:22:39.858Z,21.30
2018-10-16T10:25:09.583Z,21.50
2018-10-16T10:27:38.504Z,21.50
2018-10-16T10:30:10.103Z,21.60
2018-10-16T10:32:39.165Z,21.50
2018-10-16T10:35:11.474Z,21.50
2018-10-16T10:37:40.171Z,21.50
2018-10-16T10:40:08.991Z,21.70
2018-10-16T10:42:37.785Z,21.80
2018-10-16T10:45:08.338Z,21.80
2018-10-16T10:47:38.716Z,21.80
2018-10-16T10:50:09.797Z,21.80
2018-10-16T10:52:38.659Z,21.90
2018-10-16T10:55:09.090Z,21.90
2018-10-16T10:57:38.292Z,22.00
2018-10-16T11:00:09.284Z,21.90
2018-10-16T11:02:38.837Z,21.90
2018-10-16T11:05:10.703Z,22.00
2018-10-16T11:07:39.375Z,22.00
2018-10-16T11:10:12.159Z,22.00
2018-10-16T11:12:41.933Z,22.10
2018-10-16T11:15:11.072Z,22.10
2018-10-16T11:17:40.402Z,22.20
2018-10-16T11:20:13.129Z,22.30
2018-10-16T11:22:42.305Z,22.30
2018-10-16T11:25:11.778Z,22.40
2018-10-16T11:27:40.649Z,22.40
2018-10-16T11:30:14.687Z,22.50
2018-10-16T11:32:43.709Z,22.60
2018-10-16T11:35:13.837Z,22.60
2018-10-16T11:37:43.059Z,22.70
2018-10-16T11:40:12.349Z,22.80
2018-10-16T11:42:41.835Z,22.80
2018-10-16T11:45:10.622Z,22.90
2018-10-16T11:47:39.448Z,22.90
2018-10-16T11:50:10.264Z,22.80
2018-10-16T11:52:39.102Z,22.90
2018-10-16T11:55:08.598Z,22.90
2018-10-16T11:57:37.380Z,22.90
2018-10-16T12:00:11.036Z,22.90
2018-10-16T12:02:40.407Z,23.00
2018-10-16T12:05:09.342Z,23.10
2018-10-16T12:07:38.091Z,23.20
2018-10-16T12:10:07.058Z,23.20
2018-10-16T12:12:35.815Z,23.20
2018-10-16T12:15:04.791Z,23.20
2018-10-16T12:17:51.888Z,23.20
2018-10-16T12:20:26.790Z,23.20
2018-10-16T12:22:55.568Z,23.30
2018-10-16T12:25:24.616Z,23.40
2018-10-16T12:27:53.401Z,23.40
2018-10-16T12:30:22.109Z,23.20
2018-10-16T12:32:51.054Z,23.20
2018-10-16T12:35:19.778Z,23.10
2018-10-16T12:37:48.474Z,23.30
2018-10-16T12:40:17.413Z,23.30
2018-10-16T12:42:46.222Z,23.40
2018-10-16T12:45:15.289Z,23.40
2018-10-16T12:47:44.212Z,23.50
2018-10-16T12:50:13.107Z,23.60
2018-10-16T12:52:41.953Z,23.70
2018-10-16T12:55:10.752Z,23.70
2018-10-16T12:57:39.480Z,23.70
2018-10-16T13:00:08.373Z,23.70
2018-10-16T13:02:37.363Z,23.80
2018-10-16T13:05:07.179Z,23.80
2018-10-16T13:07:36.931Z,23.90
2018-10-16T13:10:12.155Z,23.80
2018-10-16T13:12:41.483Z,23.90
2018-10-16T13:15:12.061Z,23.80
2018-10-16T13:17:41.054Z,23.80
2018-10-16T13:20:11.995Z,23.80
2018-10-16T13:22:41.335Z,23.90
2018-10-16T13:25:12.080Z,23.90
2018-10-16T13:27:40.919Z,24.00
2018-10-16T13:30:12.118Z,24.00
2018-10-16T13:32:40.905Z,24.00
2018-10-16T13:35:12.512Z,24.00
2018-10-16T13:37:41.361Z,24.10
2018-10-16T13:40:11.704Z,24.10
2018-10-16T13:42:40.437Z,24.10
2018-10-16T13:45:10.744Z,24.10
2018-10-16T13:47:39.702Z,24.10
2018-10-16T13:50:12.041Z,24.00
2018-10-16T13:52:41.069Z,24.00
2018-10-16T13:55:10.723Z,24.10
2018-10-16T13:57:39.774Z,24.10
2018-10-16T14:00:20.571Z,24.10
2018-10-16T14:02:50.899Z,24.20
2018-10-16T14:05:19.960Z,24.20
2018-10-16T14:07:48.845Z,24.00
2018-10-16T14:10:17.993Z,24.00
2018-10-16T14:12:47.868Z,24.00
2018-10-16T14:15:17.029Z,24.10
2018-10-16T14:17:45.834Z,24.10
2018-10-16T14:20:14.711Z,24.10
2018-10-16T14:22:44.067Z,24.20
2018-10-16T14:25:14.058Z,24.20
2018-10-16T14:27:49.237Z,24.10
2018-10-16T14:30:17.986Z,24.10
2018-10-16T14:32:46.783Z,24.00
2018-10-16T14:35:15.538Z,24.00
2018-10-16T14:37:44.473Z,24.00
2018-10-16T14:40:14.757Z,23.90
2018-10-16T14:42:43.632Z,24.00
2018-10-16T14:45:13.579Z,24.00
2018-10-16T14:47:42.499Z,24.00
2018-10-16T14:50:13.358Z,24.00
2018-10-16T14:52:42.195Z,24.00
2018-10-16T14:55:10.937Z,24.00
2018-10-16T14:57:39.792Z,23.90
2018-10-16T15:00:11.041Z,23.90
2018-10-16T15:02:39.916Z,23.80
2018-10-16T15:05:09.621Z,23.90
2018-10-16T15:07:39.517Z,23.80
2018-10-16T15:10:09.626Z,23.80
2018-10-16T15:12:39.358Z,23.70
2018-10-16T15:15:09.123Z,23.70
2018-10-16T15:17:38.045Z,23.70
2018-10-16T15:20:10.018Z,23.70
2018-10-16T15:22:39.006Z,23.70
2018-10-16T15:25:08.960Z,23.60
2018-10-16T15:27:38.010Z,23.60
2018-10-16T15:30:08.575Z,23.50
2018-10-16T15:32:37.500Z,23.40
2018-10-16T15:35:07.711Z,23.30
2018-10-16T15:37:36.615Z,23.20
2018-10-16T15:40:07.564Z,23.10
2018-10-16T15:42:36.467Z,23.10
2018-10-16T15:45:06.434Z,23.00
2018-10-16T15:47:35.307Z,22.90
2018-10-16T15:50:04.303Z,22.90
2018-10-16T15:52:33.280Z,22.80
2018-10-16T15:55:02.055Z,22.70
2018-10-16T15:57:32.606Z,22.70
2018-10-16T16:00:01.530Z,22.60
2018-10-16T16:02:30.298Z,22.50
2018-10-16T16:04:59.206Z,22.40
2018-10-16T16:07:27.902Z,22.30
2018-10-16T16:09:56.923Z,22.20
2018-10-16T16:12:25.725Z,22.10
2018-10-16T16:14:54.357Z,22.00
2018-10-16T16:17:23.138Z,21.90
2018-10-16T16:19:51.961Z,21.70
2018-10-16T16:22:20.800Z,21.60
2018-10-16T16:24:49.584Z,21.50
2018-10-16T16:27:18.520Z,21.50
2018-10-16T16:29:47.291Z,21.40
2018-10-16T16:32:16.015Z,21.20
2018-10-16T16:34:44.742Z,21.10
2018-10-16T16:37:13.425Z,21.10
2018-10-16T16:39:42.140Z,20.90
2018-10-16T16:42:11.324Z,20.80
2018-10-16T16:44:40.193Z,20.80
2018-10-16T16:47:09.141Z,20.70
2018-10-16T16:49:37.981Z,20.60
2018-10-16T16:52:07.279Z,20.60
2018-10-16T16:54:36.392Z,20.50
2018-10-16T16:57:05.657Z,20.40
2018-10-16T16:59:34.845Z,20.30
2018-10-16T17:02:03.735Z,20.20
2018-10-16T17:04:32.581Z,20.20
2018-10-16T17:07:01.490Z,20.10
2018-10-16T17:09:30.356Z,20.10
2018-10-16T17:11:59.288Z,20.00
2018-10-16T17:14:28.610Z,20.00
2018-10-16T17:16:57.419Z,20.00
2018-10-16T17:19:26.292Z,20.00
2018-10-16T17:21:55.191Z,19.90
2018-10-16T17:24:24.253Z,19.80
2018-10-16T17:26:53.807Z,19.80
2018-10-16T17:29:22.879Z,19.70
2018-10-16T17:31:51.673Z,19.60
2018-10-16T17:34:20.374Z,19.60
2018-10-16T17:36:50.302Z,19.50
2018-10-16T17:39:19.312Z,19.40
2018-10-16T17:41:48.360Z,19.40
2018-10-16T17:44:17.177Z,19.40
2018-10-16T17:46:46.243Z,19.30
2018-10-16T17:49:15.283Z,19.30
2018-10-16T17:51:44.283Z,19.30
2018-10-16T17:54:13.516Z,19.20
2018-10-16T17:56:42.759Z,19.10
2018-10-16T17:59:11.888Z,19.00
2018-10-16T18:01:41.291Z,19.00
2018-10-16T18:04:11.311Z,18.90
2018-10-16T18:06:40.547Z,18.80
2018-10-16T18:09:09.822Z,18.80
2018-10-16T18:11:38.978Z,18.80
2018-10-16T18:14:08.882Z,18.70
2018-10-16T18:16:38.151Z,18.70
2018-10-16T18:19:07.659Z,18.60
2018-10-16T18:21:36.708Z,18.50
2018-10-16T18:24:06.571Z,18.50
2018-10-16T18:26:35.688Z,18.50
2018-10-16T18:29:04.503Z,18.40
2018-10-16T18:31:33.572Z,18.40
2018-10-16T18:34:02.378Z,18.30
2018-10-16T18:36:31.202Z,18.30
2018-10-16T18:38:59.992Z,18.30
2018-10-16T18:41:28.700Z,18.20
2018-10-16T18:43:58.080Z,18.10
2018-10-16T18:46:27.168Z,18.10
2018-10-16T18:48:56.130Z,18.00
2018-10-16T18:51:24.956Z,17.90
2018-10-16T18:53:53.675Z,17.90
2018-10-16T18:56:22.417Z,17.80
2018-10-16T18:58:51.900Z,17.80
2018-10-16T19:01:20.746Z,17.70
2018-10-16T19:03:49.574Z,17.60
2018-10-16T19:06:19.252Z,17.50
2018-10-16T19:08:48.041Z,17.40
2018-10-16T19:11:16.802Z,17.40
2018-10-16T19:13:45.708Z,17.40
2018-10-16T19:16:15.159Z,17.30
2018-10-16T19:18:44.080Z,17.30
2018-10-16T19:21:12.922Z,17.30
2018-10-16T19:23:41.762Z,17.30
2018-10-16T19:26:10.747Z,17.30
2018-10-16T19:28:39.593Z,17.30
2018-10-16T19:31:08.411Z,17.20
2018-10-16T19:33:37.345Z,17.10
2018-10-16T19:36:06.622Z,17.10
2018-10-16T19:38:35.557Z,17.00
2018-10-16T19:41:04.512Z,16.90
2018-10-16T19:43:33.353Z,16.90
2018-10-16T19:46:02.287Z,16.80
2018-10-16T19:48:31.038Z,16.80
2018-10-16T19:51:00.048Z,16.70
2018-10-16T19:53:28.836Z,16.60
2018-10-16T19:55:57.515Z,16.60
2018-10-16T19:58:27.093Z,16.60
2018-10-16T20:00:56.027Z,16.60
2018-10-16T20:03:24.867Z,16.50
2018-10-16T20:05:53.759Z,16.50
2018-10-16T20:08:23.761Z,16.50
2018-10-16T20:10:52.535Z,16.50
2018-10-16T20:13:21.390Z,16.60
2018-10-16T20:15:50.314Z,16.50
2018-10-16T20:18:19.429Z,16.50
2018-10-16T20:20:48.543Z,16.60
2018-10-16T20:23:17.782Z,16.60
2018-10-16T20:25:46.984Z,16.60
2018-10-16T20:28:16.282Z,16.60
2018-10-16T20:30:45.486Z,16.60
2018-10-16T20:33:14.405Z,16.50
2018-10-16T20:35:43.293Z,16.50
2018-10-16T20:38:12.211Z,16.50
2018-10-16T20:40:41.286Z,16.50
2018-10-16T20:43:10.227Z,16.40
2018-10-16T20:45:38.872Z,16.40
2018-10-16T20:48:07.795Z,16.40
2018-10-16T20:50:36.660Z,16.30
2018-10-16T20:53:06.454Z,16.30
2018-10-16T20:55:35.462Z,16.30
2018-10-16T20:58:04.447Z,16.30
2018-10-16T21:00:33.413Z,16.30
2018-10-16T21:03:02.224Z,16.20
2018-10-16T21:05:31.225Z,16.20
2018-10-16T21:07:59.914Z,16.20
2018-10-16T21:10:29.009Z,16.20
2018-10-16T21:12:57.902Z,16.10
2018-10-16T21:15:26.815Z,16.10
2018-10-16T21:17:55.614Z,16.10
2018-10-16T21:20:24.443Z,16.20
2018-10-16T21:22:53.571Z,16.10
2018-10-16T21:25:29.268Z,16.10
2018-10-16T21:27:58.082Z,16.00
2018-10-16T21:30:27.010Z,15.90
2018-10-16T21:32:55.906Z,15.80
2018-10-16T21:35:24.700Z,15.80
2018-10-16T21:37:53.585Z,15.70
2018-10-16T21:40:22.588Z,15.70
2018-10-16T21:42:51.736Z,15.70
2018-10-16T21:45:20.955Z,15.60
2018-10-16T21:47:49.837Z,15.60
2018-10-16T21:50:18.962Z,15.60
2018-10-16T21:52:47.777Z,15.60
2018-10-16T21:55:16.711Z,15.60
2018-10-16T21:57:45.584Z,15.50
2018-10-16T22:00:20.562Z,15.50
2018-10-16T22:02:50.511Z,15.50
2018-10-16T22:05:23.005Z,15.40
2018-10-16T22:07:54.612Z,15.30
2018-10-16T22:10:24.027Z,15.30
2018-10-16T22:12:52.947Z,15.20
2018-10-16T22:15:22.487Z,15.20
2018-10-16T22:17:51.457Z,15.20
2018-10-16T22:20:20.347Z,15.20
2018-10-16T22:22:49.267Z,15.20
2018-10-16T22:25:18.102Z,15.10
2018-10-16T22:27:46.943Z,15.10
2018-10-16T22:30:15.809Z,15.00
2018-10-16T22:32:44.695Z,14.90
2018-10-16T22:35:14.214Z,14.90
2018-10-16T22:37:42.966Z,14.80
2018-10-16T22:40:11.932Z,14.80
2018-10-16T22:42:40.678Z,14.70
2018-10-16T22:45:09.782Z,14.70
2018-10-16T22:47:38.477Z,14.70
2018-10-16T22:50:10.023Z,14.70
2018-10-16T22:52:38.926Z,14.70
2018-10-16T22:55:08.601Z,14.70
2018-10-16T22:57:37.571Z,14.70
2018-10-16T23:00:08.762Z,14.70
2018-10-16T23:02:37.936Z,14.70
2018-10-16T23:05:07.129Z,14.70
2018-10-16T23:07:36.160Z,14.70
2018-10-16T23:10:05.325Z,14.70
2018-10-16T23:12:34.114Z,14.60
2018-10-16T23:15:02.903Z,14.60
2018-10-16T23:17:31.959Z,14.60
2018-10-16T23:20:00.658Z,14.60
2018-10-16T23:22:29.579Z,14.60
2018-10-16T23:24:58.516Z,14.40
2018-10-16T23:27:27.809Z,14.40
2018-10-16T23:29:56.695Z,14.40
2018-10-16T23:32:25.925Z,14.40
2018-10-16T23:34:54.746Z,14.40
2018-10-16T23:37:23.667Z,14.40
2018-10-16T23:39:52.535Z,14.50
2018-10-16T23:42:21.311Z,14.50
2018-10-16T23:44:50.193Z,14.50
2018-10-16T23:47:19.134Z,14.50
2018-10-16T23:49:47.882Z,14.40
2018-10-16T23:52:16.900Z,14.30
2018-10-16T23:54:45.655Z,14.30
2018-10-16T23:57:14.405Z,14.30
2018-10-16T23:59:43.168Z,14.20
